createdAt,value
2023-04-12T00:00:56.404Z,22.13
2023-04-12T00:01:56.466Z,22.15
2023-04-12T00:02:56.586Z,22.16
2023-04-12T00:03:56.888Z,22.16
2023-04-12T00:04:56.675Z,22.13
2023-04-12T00:05:56.706Z,22.13
2023-04-12T00:06:56.697Z,22.16
2023-04-12T00:07:56.757Z,22.13
2023-04-12T00:08:56.821Z,22.17
2023-04-12T00:09:56.899Z,22.15
2023-04-12T00:10:56.927Z,22.15
2023-04-12T00:11:56.972Z,22.13
2023-04-12T00:12:57.030Z,22.15
2023-04-12T00:13:57.301Z,22.15
2023-04-12T00:14:57.132Z,22.15
2023-04-12T00:15:57.236Z,22.15
2023-04-12T00:16:57.212Z,22.16
2023-04-12T00:17:57.299Z,22.15
2023-04-12T00:18:57.364Z,22.16
2023-04-12T00:19:57.389Z,22.13
2023-04-12T00:20:57.442Z,22.16
2023-04-12T00:21:57.530Z,22.16
2023-04-12T00:22:57.705Z,22.15
2023-04-12T00:23:57.722Z,22.15
2023-04-12T00:24:57.705Z,22.17
2023-04-12T00:25:57.790Z,22.13
2023-04-12T00:26:57.794Z,22.16
2023-04-12T00:27:57.868Z,22.15
2023-04-12T00:28:57.952Z,22.13
2023-04-12T00:29:57.986Z,22.16
2023-04-12T00:30:58.088Z,22.15
2023-04-12T00:31:58.074Z,22.16
2023-04-12T00:33:00.215Z,22.16
2023-04-12T00:33:58.347Z,22.13
2023-04-12T00:34:58.236Z,22.12
2023-04-12T00:35:58.374Z,22.13
2023-04-12T00:36:58.337Z,22.15
2023-04-12T00:37:58.397Z,22.15
2023-04-12T00:38:58.428Z,22.13
2023-04-12T00:39:58.502Z,22.15
2023-04-12T00:40:58.551Z,22.13
2023-04-12T00:41:58.589Z,22.16
2023-04-12T00:42:58.666Z,22.13
2023-04-12T00:43:58.995Z,22.15
2023-04-12T00:44:58.776Z,22.13
2023-04-12T00:45:58.838Z,22.15
2023-04-12T00:46:58.951Z,22.13
2023-04-12T00:47:58.973Z,22.15
2023-04-12T00:48:58.974Z,22.15
2023-04-12T00:49:59.010Z,22.15
2023-04-12T00:50:59.118Z,22.15
2023-04-12T00:51:59.129Z,22.15
2023-04-12T00:52:59.190Z,22.16
2023-04-12T00:53:59.230Z,22.13
2023-04-12T00:54:59.297Z,22.13
2023-04-12T00:55:59.380Z,22.13
2023-04-12T00:56:59.374Z,22.13
2023-04-12T00:57:59.463Z,22.13
2023-04-12T00:58:59.524Z,22.13
2023-04-12T00:59:59.566Z,22.15
2023-04-12T01:00:59.637Z,22.13
2023-04-12T01:01:59.721Z,22.15
2023-04-12T01:02:59.858Z,22.16
2023-04-12T01:03:59.885Z,22.13
2023-04-12T01:04:59.836Z,22.15
2023-04-12T01:05:59.914Z,22.13
2023-04-12T01:06:59.934Z,22.13
2023-04-12T01:07:59.974Z,22.15
2023-04-12T01:09:00.041Z,22.13
2023-04-12T01:10:00.150Z,22.12
2023-04-12T01:11:00.172Z,22.12
2023-04-12T01:12:00.215Z,22.15
2023-04-12T01:13:00.235Z,22.15
2023-04-12T01:14:00.300Z,22.13
2023-04-12T01:15:00.339Z,22.10
2023-04-12T01:16:00.470Z,22.12
2023-04-12T01:17:00.450Z,22.12
2023-04-12T01:18:00.601Z,22.15
2023-04-12T01:19:00.569Z,22.15
2023-04-12T01:20:00.614Z,22.13
2023-04-12T01:21:00.670Z,22.15
2023-04-12T01:22:00.744Z,22.12
2023-04-12T01:23:00.861Z,22.12
2023-04-12T01:24:00.819Z,22.12
2023-04-12T01:25:00.865Z,22.15
2023-04-12T01:26:01.059Z,22.13
2023-04-12T01:27:01.008Z,22.16
2023-04-12T01:28:01.051Z,22.12
2023-04-12T01:29:01.130Z,22.13
2023-04-12T01:30:01.138Z,22.13
2023-04-12T01:31:01.218Z,22.15
2023-04-12T01:32:01.345Z,22.13
2023-04-12T01:33:01.419Z,22.12
2023-04-12T01:34:01.390Z,22.10
2023-04-12T01:35:01.423Z,22.12
2023-04-12T01:36:01.564Z,22.13
2023-04-12T01:37:01.545Z,22.12
2023-04-12T01:38:01.574Z,22.15
2023-04-12T01:39:01.652Z,22.12
2023-04-12T01:40:01.720Z,22.12
2023-04-12T01:41:01.747Z,22.13
2023-04-12T01:42:01.804Z,22.12
2023-04-12T01:43:01.808Z,22.10
2023-04-12T01:44:01.854Z,22.13
2023-04-12T01:45:01.911Z,22.13
2023-04-12T01:46:02.035Z,22.12
2023-04-12T01:47:02.025Z,22.13
2023-04-12T01:48:02.187Z,22.12
2023-04-12T01:49:02.106Z,22.12
2023-04-12T01:50:02.196Z,22.13
2023-04-12T01:51:02.211Z,22.13
2023-04-12T01:52:02.324Z,22.12
2023-04-12T01:53:02.392Z,22.13
2023-04-12T01:54:02.380Z,22.10
2023-04-12T01:55:02.456Z,22.15
2023-04-12T01:56:02.516Z,22.13
2023-04-12T01:57:02.594Z,22.12
2023-04-12T01:58:02.599Z,22.13
2023-04-12T01:59:02.680Z,22.13
2023-04-12T02:00:02.734Z,22.12
2023-04-12T02:01:02.852Z,22.12
2023-04-12T02:02:02.885Z,22.12
2023-04-12T02:03:03.045Z,22.12
2023-04-12T02:04:03.120Z,22.12
2023-04-12T02:05:02.991Z,22.12
2023-04-12T02:06:03.067Z,22.12
2023-04-12T02:07:03.108Z,22.12
2023-04-12T02:08:03.143Z,22.10
2023-04-12T02:09:03.217Z,22.13
2023-04-12T02:10:03.290Z,22.12
2023-04-12T02:11:03.343Z,22.13
2023-04-12T02:12:03.369Z,22.10
2023-04-12T02:13:03.428Z,22.13
2023-04-12T02:14:03.483Z,22.13
2023-04-12T02:15:03.551Z,22.12
2023-04-12T02:16:03.608Z,22.13
2023-04-12T02:17:03.709Z,22.13
2023-04-12T02:18:03.794Z,22.15
2023-04-12T02:19:03.772Z,22.12
2023-04-12T02:20:03.846Z,22.15
2023-04-12T02:21:03.926Z,22.13
2023-04-12T02:22:03.924Z,22.13
2023-04-12T02:23:04.040Z,22.12
2023-04-12T02:24:04.063Z,22.15
2023-04-12T02:25:04.105Z,22.12
2023-04-12T02:26:04.182Z,22.15
2023-04-12T02:27:04.215Z,22.12
2023-04-12T02:28:05.129Z,22.13
2023-04-12T02:29:04.340Z,22.12
2023-04-12T02:30:04.381Z,22.10
2023-04-12T02:31:04.505Z,22.12
2023-04-12T02:32:04.542Z,22.13
2023-04-12T02:33:04.579Z,22.12
2023-04-12T02:34:04.611Z,22.13
2023-04-12T02:35:04.653Z,22.12
2023-04-12T02:36:04.747Z,22.10
2023-04-12T02:37:04.849Z,22.12
2023-04-12T02:38:04.844Z,22.10
2023-04-12T02:39:04.911Z,22.13
2023-04-12T02:40:04.965Z,22.13
2023-04-12T02:41:05.005Z,22.15
2023-04-12T02:42:05.033Z,22.12
2023-04-12T02:43:05.108Z,22.12
2023-04-12T02:44:05.170Z,22.10
2023-04-12T02:45:05.211Z,22.10
2023-04-12T02:46:05.293Z,22.12
2023-04-12T02:47:05.318Z,22.13
2023-04-12T02:48:05.462Z,22.12
2023-04-12T02:49:05.403Z,22.13
2023-04-12T02:50:05.434Z,22.12
2023-04-12T02:51:05.523Z,22.12
2023-04-12T02:52:05.579Z,22.10
2023-04-12T02:53:05.615Z,22.12
2023-04-12T02:54:05.710Z,22.12
2023-04-12T02:55:05.725Z,22.12
2023-04-12T02:56:06.677Z,22.12
2023-04-12T02:57:05.848Z,22.13
2023-04-12T02:58:05.905Z,22.12
2023-04-12T02:59:05.963Z,22.12
2023-04-12T03:00:06.003Z,22.12
2023-04-12T03:01:06.159Z,22.13
2023-04-12T03:02:06.193Z,22.12
2023-04-12T03:03:06.330Z,22.13
2023-04-12T03:04:06.297Z,22.10
2023-04-12T03:05:06.291Z,22.12
2023-04-12T03:06:06.368Z,22.12
2023-04-12T03:07:06.390Z,22.15
2023-04-12T03:08:06.441Z,22.12
2023-04-12T03:09:06.467Z,22.12
2023-04-12T03:10:06.525Z,22.13
2023-04-12T03:11:06.622Z,22.13
2023-04-12T03:12:06.664Z,22.10
2023-04-12T03:13:06.722Z,22.12
2023-04-12T03:14:06.779Z,22.10
2023-04-12T03:15:06.830Z,22.12
2023-04-12T03:16:06.947Z,22.13
2023-04-12T03:17:06.963Z,22.10
2023-04-12T03:18:07.047Z,22.12
2023-04-12T03:19:07.032Z,22.10
2023-04-12T03:20:07.080Z,22.12
2023-04-12T03:21:07.186Z,22.13
2023-04-12T03:22:07.209Z,22.10
2023-04-12T03:23:07.271Z,22.12
2023-04-12T03:24:07.295Z,22.15
2023-04-12T03:25:07.344Z,22.13
2023-04-12T03:26:07.436Z,22.13
2023-04-12T03:27:07.431Z,22.12
2023-04-12T03:28:07.554Z,22.10
2023-04-12T03:29:08.897Z,22.10
2023-04-12T03:30:07.606Z,22.15
2023-04-12T03:31:07.789Z,22.12
2023-04-12T03:32:07.711Z,22.12
2023-04-12T03:33:07.826Z,22.12
2023-04-12T03:34:07.834Z,22.13
2023-04-12T03:35:07.865Z,22.13
2023-04-12T03:36:07.938Z,22.10
2023-04-12T03:37:08.032Z,22.10
2023-04-12T03:38:08.041Z,22.13
2023-04-12T03:39:08.073Z,22.13
2023-04-12T03:40:08.138Z,22.13
2023-04-12T03:41:08.196Z,22.12
2023-04-12T03:42:13.596Z,22.12
2023-04-12T03:43:09.238Z,22.13
2023-04-12T03:44:08.217Z,22.10
2023-04-12T03:45:08.221Z,22.13
2023-04-12T03:46:08.286Z,22.12
2023-04-12T03:47:08.188Z,22.12
2023-04-12T03:48:08.236Z,22.12
2023-04-12T03:49:08.198Z,22.10
2023-04-12T03:50:11.537Z,22.12
2023-04-12T03:51:08.189Z,22.12
2023-04-12T03:52:08.180Z,22.10
2023-04-12T03:53:08.174Z,22.10
2023-04-12T03:54:08.156Z,22.10
2023-04-12T03:55:08.391Z,22.12
2023-04-12T03:56:08.199Z,22.12
2023-04-12T03:57:08.160Z,22.12
2023-04-12T03:58:08.180Z,22.13
2023-04-12T03:59:08.141Z,22.12
2023-04-12T04:00:08.170Z,22.10
2023-04-12T04:01:08.144Z,22.10
2023-04-12T04:02:08.140Z,22.10
2023-04-12T04:03:08.185Z,22.12
2023-04-12T04:04:08.173Z,22.12
2023-04-12T04:05:08.203Z,22.13
2023-04-12T04:06:08.109Z,22.12
2023-04-12T04:07:08.067Z,22.12
2023-04-12T04:08:08.085Z,22.09
2023-04-12T04:09:08.064Z,22.12
2023-04-12T04:10:08.114Z,22.13
2023-04-12T04:11:09.108Z,22.12
2023-04-12T04:12:08.131Z,22.12
2023-04-12T04:13:08.194Z,22.13
2023-04-12T04:14:08.254Z,22.12
2023-04-12T04:15:08.277Z,22.12
2023-04-12T04:16:08.387Z,22.13
2023-04-12T04:17:08.416Z,22.10
2023-04-12T04:18:08.452Z,22.12
2023-04-12T04:19:08.528Z,22.10
2023-04-12T04:20:08.554Z,22.12
2023-04-12T04:21:08.615Z,22.09
2023-04-12T04:22:08.647Z,22.13
2023-04-12T04:23:08.687Z,22.12
2023-04-12T04:24:08.750Z,22.10
2023-04-12T04:25:08.836Z,22.12
2023-04-12T04:26:08.903Z,22.10
2023-04-12T04:27:08.945Z,22.10
2023-04-12T04:28:09.023Z,22.12
2023-04-12T04:29:09.034Z,22.12
2023-04-12T04:30:09.098Z,22.10
2023-04-12T04:31:09.158Z,22.13
2023-04-12T04:32:09.233Z,22.09
2023-04-12T04:33:09.308Z,22.12
2023-04-12T04:34:10.130Z,22.09
2023-04-12T04:35:09.401Z,22.10
2023-04-12T04:36:09.477Z,22.09
2023-04-12T04:37:09.527Z,22.10
2023-04-12T04:38:09.559Z,22.10
2023-04-12T04:39:09.605Z,22.12
2023-04-12T04:40:09.655Z,22.12
2023-04-12T04:41:09.741Z,22.12
2023-04-12T04:42:09.803Z,22.12
2023-04-12T04:43:09.840Z,22.12
2023-04-12T04:44:09.891Z,22.10
2023-04-12T04:45:09.940Z,22.10
2023-04-12T04:46:09.990Z,22.12
2023-04-12T04:47:10.171Z,22.10
2023-04-12T04:48:10.107Z,22.10
2023-04-12T04:49:10.178Z,22.12
2023-04-12T04:50:10.224Z,22.12
2023-04-12T04:51:10.274Z,22.13
2023-04-12T04:52:10.334Z,22.13
2023-04-12T04:53:10.376Z,22.13
2023-04-12T04:54:10.412Z,22.16
2023-04-12T04:55:11.348Z,22.15
2023-04-12T04:56:10.568Z,22.16
2023-04-12T04:57:10.579Z,22.19
2023-04-12T04:58:10.636Z,22.16
2023-04-12T04:59:10.649Z,22.16
2023-04-12T05:00:10.731Z,22.17
2023-04-12T05:01:10.785Z,22.16
2023-04-12T05:02:10.844Z,22.19
2023-04-12T05:03:10.988Z,22.17
2023-04-12T05:04:10.925Z,22.17
2023-04-12T05:05:10.966Z,22.19
2023-04-12T05:06:10.994Z,22.19
2023-04-12T05:07:11.089Z,22.16
2023-04-12T05:08:11.090Z,22.16
2023-04-12T05:09:11.151Z,22.19
2023-04-12T05:10:11.191Z,22.19
2023-04-12T05:11:11.273Z,22.20
2023-04-12T05:12:11.298Z,22.19
2023-04-12T05:13:11.353Z,22.19
2023-04-12T05:14:12.711Z,22.19
2023-04-12T05:15:12.393Z,22.17
2023-04-12T05:16:11.533Z,22.20
2023-04-12T05:17:11.538Z,22.21
2023-04-12T05:18:11.573Z,22.21
2023-04-12T05:19:11.615Z,22.21
2023-04-12T05:20:11.695Z,22.19
2023-04-12T05:21:11.746Z,22.21
2023-04-12T05:22:11.791Z,22.23
2023-04-12T05:23:11.844Z,22.20
2023-04-12T05:24:11.847Z,22.23
2023-04-12T05:25:11.919Z,22.23
2023-04-12T05:26:11.953Z,22.21
2023-04-12T05:27:12.039Z,22.23
2023-04-12T05:28:12.020Z,22.23
2023-04-12T05:29:12.087Z,22.23
2023-04-12T05:30:12.158Z,22.21
2023-04-12T05:31:12.213Z,22.21
2023-04-12T05:32:12.225Z,22.21
2023-04-12T05:33:12.281Z,22.24
2023-04-12T05:34:12.369Z,22.21
2023-04-12T05:35:12.405Z,22.24
2023-04-12T05:36:12.420Z,22.24
2023-04-12T05:37:12.497Z,22.23
2023-04-12T05:38:12.490Z,22.23
2023-04-12T05:39:12.742Z,22.24
2023-04-12T05:40:12.586Z,22.23
2023-04-12T05:41:12.609Z,22.23
2023-04-12T05:42:12.687Z,22.24
2023-04-12T05:43:12.747Z,22.23
2023-04-12T05:44:12.760Z,22.24
2023-04-12T05:45:12.801Z,22.24
2023-04-12T05:46:12.862Z,22.23
2023-04-12T05:47:12.893Z,22.23
2023-04-12T05:48:12.977Z,22.24
2023-04-12T05:49:12.970Z,22.27
2023-04-12T05:50:13.023Z,22.24
2023-04-12T05:51:13.045Z,22.24
2023-04-12T05:52:13.098Z,22.24
2023-04-12T05:53:13.122Z,22.24
2023-04-12T05:54:13.193Z,22.26
2023-04-12T05:55:13.217Z,22.24
2023-04-12T05:56:13.292Z,22.24
2023-04-12T05:57:13.701Z,22.23
2023-04-12T05:58:13.375Z,22.24
2023-04-12T05:59:13.418Z,22.23
2023-04-12T06:00:13.472Z,22.24
2023-04-12T06:01:13.524Z,22.24
2023-04-12T06:02:13.590Z,22.24
2023-04-12T06:03:13.657Z,22.24
2023-04-12T06:04:13.777Z,22.24
2023-04-12T06:05:13.872Z,22.26
2023-04-12T06:06:13.705Z,22.23
2023-04-12T06:07:13.747Z,22.29
2023-04-12T06:08:13.778Z,22.26
2023-04-12T06:09:13.838Z,22.26
2023-04-12T06:10:13.872Z,22.23
2023-04-12T06:11:13.932Z,22.24
2023-04-12T06:12:13.975Z,22.29
2023-04-12T06:13:13.999Z,22.23
2023-04-12T06:14:14.080Z,22.26
2023-04-12T06:15:14.114Z,22.24
2023-04-12T06:16:14.171Z,22.27
2023-04-12T06:17:14.195Z,22.26
2023-04-12T06:18:14.237Z,22.24
2023-04-12T06:19:14.265Z,22.26
2023-04-12T06:20:14.331Z,22.23
2023-04-12T06:21:14.350Z,22.21
2023-04-12T06:22:14.400Z,22.24
2023-04-12T06:23:14.502Z,22.24
2023-04-12T06:24:14.481Z,22.27
2023-04-12T06:25:14.559Z,22.27
2023-04-12T06:26:15.373Z,22.26
2023-04-12T06:27:14.627Z,22.27
2023-04-12T06:28:14.674Z,22.23
2023-04-12T06:29:14.677Z,22.23
2023-04-12T06:30:14.717Z,22.26
2023-04-12T06:31:14.807Z,22.26
2023-04-12T06:32:14.836Z,22.26
2023-04-12T06:33:14.862Z,22.26
2023-04-12T06:34:14.929Z,22.24
2023-04-12T06:35:14.933Z,22.26
2023-04-12T06:36:14.995Z,22.27
2023-04-12T06:37:15.494Z,22.26
2023-04-12T06:38:15.091Z,22.23
2023-04-12T06:39:15.111Z,22.24
2023-04-12T06:40:15.142Z,22.23
2023-04-12T06:41:15.214Z,22.24
2023-04-12T06:42:15.228Z,22.27
2023-04-12T06:43:15.292Z,22.23
2023-04-12T06:44:15.347Z,22.23
2023-04-12T06:45:15.390Z,22.24
2023-04-12T06:46:15.477Z,22.26
2023-04-12T06:47:15.802Z,22.24
2023-04-12T06:48:15.529Z,22.27
2023-04-12T06:49:15.527Z,22.24
2023-04-12T06:50:15.614Z,22.24
2023-04-12T06:51:15.658Z,22.26
2023-04-12T06:52:15.705Z,22.24
2023-04-12T06:53:15.758Z,22.26
2023-04-12T06:54:15.758Z,22.27
2023-04-12T06:55:15.811Z,22.24
2023-04-12T06:56:18.296Z,22.24
2023-04-12T06:57:15.819Z,22.24
2023-04-12T06:58:15.833Z,22.24
2023-04-12T06:59:15.811Z,22.23
2023-04-12T07:00:15.815Z,22.24
2023-04-12T07:01:15.838Z,22.24
2023-04-12T07:02:15.854Z,22.26
2023-04-12T07:03:15.885Z,22.29
2023-04-12T07:04:15.907Z,22.26
2023-04-12T07:05:15.834Z,22.27
2023-04-12T07:06:25.167Z,22.27
2023-04-12T07:07:16.785Z,22.27
2023-04-12T07:08:15.747Z,22.27
2023-04-12T07:09:15.762Z,22.27
2023-04-12T07:10:15.747Z,22.27
2023-04-12T07:11:21.472Z,22.27
2023-04-12T07:12:16.750Z,22.27
2023-04-12T07:13:15.745Z,22.26
2023-04-12T07:14:15.721Z,22.27
2023-04-12T07:15:15.699Z,22.26
2023-04-12T07:16:15.827Z,22.27
2023-04-12T07:17:15.722Z,22.27
2023-04-12T07:18:15.709Z,22.29
2023-04-12T07:19:15.714Z,22.24
2023-04-12T07:20:15.707Z,22.27
2023-04-12T07:21:15.701Z,22.26
2023-04-12T07:22:15.745Z,22.29
2023-04-12T07:23:15.735Z,22.29
2023-04-12T07:24:15.730Z,22.27
2023-04-12T07:25:15.802Z,22.29
2023-04-12T07:26:15.858Z,22.27
2023-04-12T07:27:15.907Z,22.30
2023-04-12T07:28:15.953Z,22.30
2023-04-12T07:29:16.004Z,22.29
2023-04-12T07:30:16.001Z,22.29
2023-04-12T07:31:16.066Z,22.29
2023-04-12T07:32:16.130Z,22.27
2023-04-12T07:33:19.891Z,22.32
2023-04-12T07:34:16.241Z,22.29
2023-04-12T07:35:16.136Z,22.29
2023-04-12T07:36:16.184Z,22.32
2023-04-12T07:37:16.112Z,22.33
2023-04-12T07:38:16.928Z,22.35
2023-04-12T07:39:16.149Z,22.33
2023-04-12T07:40:16.114Z,22.35
2023-04-12T07:41:16.271Z,22.32
2023-04-12T07:42:16.223Z,22.36
2023-04-12T07:43:16.063Z,22.36
2023-04-12T07:44:16.088Z,22.36
2023-04-12T07:45:16.071Z,22.37
2023-04-12T07:46:16.194Z,22.39
2023-04-12T07:47:16.226Z,22.37
2023-04-12T07:48:16.074Z,22.37
2023-04-12T07:49:16.037Z,22.36
2023-04-12T07:50:16.051Z,22.37
2023-04-12T07:51:16.043Z,22.39
2023-04-12T07:52:16.019Z,22.42
2023-04-12T07:53:16.016Z,22.40
2023-04-12T07:54:16.012Z,22.44
2023-04-12T07:55:15.990Z,22.43
2023-04-12T07:56:15.973Z,22.40
2023-04-12T07:57:15.977Z,22.43
2023-04-12T07:58:16.011Z,22.48
2023-04-12T07:59:15.954Z,22.47
2023-04-12T08:00:15.973Z,22.47
2023-04-12T08:01:15.988Z,22.53
2023-04-12T08:02:16.383Z,22.50
2023-04-12T08:03:16.057Z,22.53
2023-04-12T08:04:16.045Z,22.51
2023-04-12T08:05:15.972Z,22.53
2023-04-12T08:06:15.998Z,22.56
2023-04-12T08:07:15.952Z,22.58
2023-04-12T08:08:15.968Z,22.60
2023-04-12T08:09:15.937Z,22.58
2023-04-12T08:10:15.927Z,22.64
2023-04-12T08:11:15.936Z,22.67
2023-04-12T08:12:15.894Z,22.71
2023-04-12T08:13:15.890Z,22.71
2023-04-12T08:14:15.885Z,22.70
2023-04-12T08:15:15.867Z,22.72
2023-04-12T08:16:15.873Z,22.77
2023-04-12T08:17:15.857Z,22.77
2023-04-12T08:18:15.857Z,22.79
2023-04-12T08:19:15.854Z,22.86
2023-04-12T08:20:16.083Z,22.90
2023-04-12T08:21:15.987Z,22.88
2023-04-12T08:22:16.045Z,22.94
2023-04-12T08:23:16.108Z,22.97
2023-04-12T08:24:16.153Z,23.01
2023-04-12T08:25:16.203Z,22.99
2023-04-12T08:26:16.283Z,23.04
2023-04-12T08:27:16.305Z,23.04
2023-04-12T08:28:16.358Z,23.09
2023-04-12T08:29:16.400Z,23.11
2023-04-12T08:30:16.459Z,23.15
2023-04-12T08:31:16.546Z,23.17
2023-04-12T08:32:16.612Z,23.15
2023-04-12T08:33:16.609Z,23.12
2023-04-12T08:34:16.649Z,23.12
2023-04-12T08:35:16.710Z,23.18
2023-04-12T08:36:16.778Z,23.15
2023-04-12T08:37:16.814Z,23.21
2023-04-12T08:38:17.237Z,23.22
2023-04-12T08:39:16.873Z,23.19
2023-04-12T08:40:16.875Z,23.11
2023-04-12T08:41:16.887Z,23.01
2023-04-12T08:42:16.920Z,22.94
2023-04-12T08:43:17.002Z,22.87
2023-04-12T08:44:17.025Z,22.77
2023-04-12T08:45:17.065Z,22.70
2023-04-12T08:46:17.221Z,22.56
2023-04-12T08:47:17.114Z,22.50
2023-04-12T08:48:17.100Z,22.39
2023-04-12T08:49:17.755Z,22.37
2023-04-12T08:50:17.230Z,22.35
2023-04-12T08:51:17.153Z,22.32
2023-04-12T08:52:17.142Z,22.33
2023-04-12T08:53:17.139Z,22.33
2023-04-12T08:54:17.154Z,22.37
2023-04-12T08:55:17.143Z,22.37
2023-04-12T08:56:17.159Z,22.39
2023-04-12T08:57:17.210Z,22.43
2023-04-12T08:58:17.275Z,22.44
2023-04-12T08:59:17.356Z,22.47
2023-04-12T09:00:17.369Z,22.51
2023-04-12T09:01:17.429Z,22.56
2023-04-12T09:02:17.595Z,22.56
2023-04-12T09:03:17.828Z,22.61
2023-04-12T09:04:17.773Z,22.61
2023-04-12T09:05:17.643Z,22.68
2023-04-12T09:06:17.597Z,22.70
2023-04-12T09:07:17.596Z,22.74
2023-04-12T09:08:17.577Z,22.78
2023-04-12T09:09:17.559Z,22.81
2023-04-12T09:10:17.590Z,22.81
2023-04-12T09:11:17.601Z,22.86
2023-04-12T09:12:17.662Z,22.88
2023-04-12T09:13:17.694Z,22.88
2023-04-12T09:14:17.950Z,22.93
2023-04-12T09:15:17.816Z,22.95
2023-04-12T09:16:17.914Z,22.95
2023-04-12T09:17:17.950Z,22.99
2023-04-12T09:18:18.011Z,23.01
2023-04-12T09:19:18.067Z,23.05
2023-04-12T09:20:18.184Z,23.09
2023-04-12T09:21:18.191Z,23.09
2023-04-12T09:22:18.246Z,23.09
2023-04-12T09:23:18.301Z,23.14
2023-04-12T09:24:18.301Z,23.11
2023-04-12T09:25:18.371Z,23.09
2023-04-12T09:26:18.436Z,23.14
2023-04-12T09:27:18.490Z,23.15
2023-04-12T09:28:18.532Z,23.11
2023-04-12T09:29:18.578Z,23.08
2023-04-12T09:30:18.713Z,23.11
2023-04-12T09:31:18.771Z,23.12
2023-04-12T09:32:18.774Z,23.11
2023-04-12T09:33:19.780Z,23.08
2023-04-12T09:34:18.833Z,23.05
2023-04-12T09:35:18.856Z,23.07
2023-04-12T09:36:18.932Z,23.07
2023-04-12T09:37:18.956Z,23.08
2023-04-12T09:38:18.978Z,23.11
2023-04-12T09:39:19.018Z,23.08
2023-04-12T09:40:19.087Z,23.14
2023-04-12T09:41:22.228Z,23.14
2023-04-12T09:42:33.020Z,23.15
2023-04-12T09:43:20.263Z,23.18
2023-04-12T09:44:19.122Z,23.17
2023-04-12T09:45:19.104Z,23.17
2023-04-12T09:46:19.151Z,23.15
2023-04-12T09:47:19.131Z,23.15
2023-04-12T09:48:19.108Z,23.15
2023-04-12T09:49:19.095Z,23.18
2023-04-12T09:50:19.109Z,23.15
2023-04-12T09:51:19.055Z,23.11
2023-04-12T09:52:19.057Z,23.14
2023-04-12T09:53:19.049Z,23.17
2023-04-12T09:54:19.084Z,23.17
2023-04-12T09:55:19.039Z,23.17
2023-04-12T09:56:19.034Z,23.18
2023-04-12T09:57:19.043Z,23.21
2023-04-12T09:58:19.034Z,23.18
2023-04-12T09:59:19.038Z,23.17
2023-04-12T10:00:19.149Z,23.15
2023-04-12T10:01:18.997Z,23.14
2023-04-12T10:02:19.320Z,23.12
2023-04-12T10:03:19.235Z,23.08
2023-04-12T10:04:19.337Z,23.09
2023-04-12T10:05:19.513Z,23.05
2023-04-12T10:06:19.224Z,23.02
2023-04-12T10:07:19.304Z,23.01
2023-04-12T10:08:19.363Z,23.02
2023-04-12T10:09:19.421Z,23.01
2023-04-12T10:10:19.536Z,22.97
2023-04-12T10:11:19.578Z,22.98
2023-04-12T10:12:19.669Z,22.97
2023-04-12T10:13:19.712Z,22.95
2023-04-12T10:14:19.775Z,22.95
2023-04-12T10:15:19.809Z,22.95
2023-04-12T10:16:19.940Z,22.94
2023-04-12T10:17:19.914Z,22.95
2023-04-12T10:18:19.952Z,22.95
2023-04-12T10:19:20.015Z,22.94
2023-04-12T10:20:20.024Z,22.93
2023-04-12T10:21:20.037Z,22.93
2023-04-12T10:22:20.083Z,22.93
2023-04-12T10:23:20.198Z,22.91
2023-04-12T10:24:20.245Z,22.93
2023-04-12T10:25:20.179Z,22.91
2023-04-12T10:26:20.252Z,22.90
2023-04-12T10:27:20.283Z,22.90
2023-04-12T10:28:20.345Z,22.91
2023-04-12T10:29:20.313Z,22.91
2023-04-12T10:30:20.336Z,22.90
2023-04-12T10:31:20.376Z,22.90
2023-04-12T10:32:20.494Z,22.91
2023-04-12T10:33:20.464Z,22.90
2023-04-12T10:34:20.446Z,22.90
2023-04-12T10:35:20.511Z,22.90
2023-04-12T10:36:20.506Z,22.87
2023-04-12T10:37:20.530Z,22.87
2023-04-12T10:38:20.579Z,22.87
2023-04-12T10:39:20.487Z,22.83
2023-04-12T10:40:20.528Z,22.84
2023-04-12T10:41:20.543Z,22.84
2023-04-12T10:42:20.563Z,22.84
2023-04-12T10:43:20.557Z,22.86
2023-04-12T10:44:20.577Z,22.86
2023-04-12T10:45:20.710Z,22.83
2023-04-12T10:46:20.593Z,22.84
2023-04-12T10:47:20.709Z,22.84
2023-04-12T10:48:20.680Z,22.84
2023-04-12T10:49:20.634Z,22.83
2023-04-12T10:50:20.665Z,22.86
2023-04-12T10:51:22.753Z,22.84
2023-04-12T10:52:20.752Z,22.83
2023-04-12T10:53:20.746Z,22.83
2023-04-12T10:54:20.716Z,22.81
2023-04-12T10:55:20.735Z,22.83
2023-04-12T10:56:20.736Z,22.86
2023-04-12T10:57:20.706Z,22.86
2023-04-12T10:58:20.702Z,22.87
2023-04-12T10:59:20.734Z,22.86
2023-04-12T11:00:20.740Z,22.83
2023-04-12T11:01:21.157Z,22.86
2023-04-12T11:02:20.899Z,22.87
2023-04-12T11:03:22.616Z,22.86
2023-04-12T11:04:21.087Z,22.86
2023-04-12T11:05:20.877Z,22.84
2023-04-12T11:06:27.632Z,22.84
2023-04-12T11:07:21.760Z,22.75
2023-04-12T11:08:20.725Z,22.67
2023-04-12T11:09:20.715Z,22.57
2023-04-12T11:10:20.714Z,22.47
2023-04-12T11:11:20.753Z,22.37
2023-04-12T11:12:20.716Z,22.29
2023-04-12T11:13:20.716Z,22.21
2023-04-12T11:14:20.685Z,22.16
2023-04-12T11:15:20.682Z,22.16
2023-04-12T11:16:20.669Z,22.05
2023-04-12T11:17:21.059Z,22.05
2023-04-12T11:18:20.777Z,22.05
2023-04-12T11:19:20.820Z,21.99
2023-04-12T11:20:20.625Z,21.97
2023-04-12T11:21:20.859Z,21.97
2023-04-12T11:22:20.662Z,21.95
2023-04-12T11:23:20.652Z,21.93
2023-04-12T11:24:20.746Z,21.93
2023-04-12T11:25:20.638Z,21.95
2023-04-12T11:26:20.653Z,21.92
2023-04-12T11:27:20.644Z,21.93
2023-04-12T11:28:28.498Z,21.95
2023-04-12T11:29:21.794Z,21.92
2023-04-12T11:30:20.685Z,21.92
2023-04-12T11:31:20.683Z,21.91
2023-04-12T11:32:20.715Z,21.88
2023-04-12T11:33:20.655Z,21.85
2023-04-12T11:34:20.658Z,21.82
2023-04-12T11:35:20.605Z,21.78
2023-04-12T11:36:20.626Z,21.76
2023-04-12T11:37:20.634Z,21.76
2023-04-12T11:38:20.595Z,21.76
2023-04-12T11:39:20.604Z,21.75
2023-04-12T11:40:20.576Z,21.78
2023-04-12T11:41:20.555Z,21.78
2023-04-12T11:42:20.546Z,21.76
2023-04-12T11:43:20.566Z,21.75
2023-04-12T11:44:20.586Z,21.78
2023-04-12T11:45:20.543Z,21.81
2023-04-12T11:46:20.713Z,21.82
2023-04-12T11:47:20.582Z,21.82
2023-04-12T11:48:20.523Z,21.81
2023-04-12T11:49:20.543Z,21.84
2023-04-12T11:50:20.549Z,21.86
2023-04-12T11:51:20.534Z,21.88
2023-04-12T11:52:20.542Z,21.88
2023-04-12T11:53:20.471Z,21.89
2023-04-12T11:54:20.499Z,21.93
2023-04-12T11:55:20.499Z,21.96
2023-04-12T11:56:20.520Z,21.97
2023-04-12T11:57:20.465Z,21.97
2023-04-12T11:58:20.452Z,21.99
2023-04-12T11:59:20.460Z,22.00
2023-04-12T12:00:20.483Z,22.00
2023-04-12T12:01:20.485Z,22.03
2023-04-12T12:02:24.092Z,22.02
2023-04-12T12:03:20.675Z,22.02
2023-04-12T12:04:20.599Z,22.02
2023-04-12T12:05:20.793Z,22.07
2023-04-12T12:06:20.824Z,22.09
2023-04-12T12:07:21.259Z,22.15
2023-04-12T12:08:20.420Z,22.19
2023-04-12T12:09:20.420Z,22.21
2023-04-12T12:10:37.889Z,22.27
2023-04-12T12:11:21.505Z,22.32
2023-04-12T12:12:20.402Z,22.37
2023-04-12T12:13:20.403Z,22.43
2023-04-12T12:14:20.423Z,22.47
2023-04-12T12:15:20.601Z,22.51
2023-04-12T12:16:20.432Z,22.61
2023-04-12T12:17:20.437Z,22.68
2023-04-12T12:18:20.359Z,22.81
2023-04-12T12:19:20.377Z,22.86
2023-04-12T12:20:20.346Z,22.87
2023-04-12T12:21:20.408Z,22.94
2023-04-12T12:22:20.309Z,22.98
2023-04-12T12:23:20.377Z,23.01
2023-04-12T12:24:20.416Z,23.04
2023-04-12T12:25:20.463Z,23.01
2023-04-12T12:26:20.499Z,23.02
2023-04-12T12:27:20.649Z,23.01
2023-04-12T12:28:20.639Z,23.05
2023-04-12T12:29:20.604Z,23.08
2023-04-12T12:30:20.648Z,23.15
2023-04-12T12:31:20.736Z,23.29
2023-04-12T12:32:20.733Z,23.38
2023-04-12T12:33:21.914Z,23.46
2023-04-12T12:34:21.754Z,23.53
2023-04-12T12:35:20.744Z,23.59
2023-04-12T12:36:20.913Z,23.65
2023-04-12T12:37:20.740Z,23.70
2023-04-12T12:38:20.723Z,23.70
2023-04-12T12:39:20.730Z,23.76
2023-04-12T12:40:20.694Z,23.74
2023-04-12T12:41:20.766Z,23.68
2023-04-12T12:42:20.700Z,23.65
2023-04-12T12:43:20.718Z,23.63
2023-04-12T12:44:20.703Z,23.62
2023-04-12T12:45:20.668Z,23.58
2023-04-12T12:46:20.699Z,23.50
2023-04-12T12:47:20.714Z,23.49
2023-04-12T12:48:20.679Z,23.48
2023-04-12T12:49:20.668Z,23.48
2023-04-12T12:50:22.035Z,23.44
2023-04-12T12:51:20.647Z,23.45
2023-04-12T12:52:20.639Z,23.44
2023-04-12T12:53:22.529Z,23.39